sensor_id;sensor_type;location;lat;lon;timestamp;pressure;altitude;pressure_sealevel;temperature;humidity
27840;BME280;15207;42.182;24.308;2023-03-24T00:00:46;99462.47;;;5.69;98.99
27840;BME280;15207;42.182;24.308;2023-03-24T00:03:13;99450.13;;;5.68;97.90
27840;BME280;15207;42.182;24.308;2023-03-24T00:05:41;99460.00;;;5.66;95.56
27840;BME280;15207;42.182;24.308;2023-03-24T00:08:08;99451.66;;;5.72;94.95
27840;BME280;15207;42.182;24.308;2023-03-24T00:10:34;99452.44;;;5.74;94.71
27840;BME280;15207;42.182;24.308;2023-03-24T00:13:02;99458.69;;;5.73;94.51
27840;BME280;15207;42.182;24.308;2023-03-24T00:15:28;99458.38;;;5.63;95.03
27840;BME280;15207;42.182;24.308;2023-03-24T00:17:53;99455.53;;;5.50;94.56
27840;BME280;15207;42.182;24.308;2023-03-24T00:20:22;99452.44;;;5.42;95.11
27840;BME280;15207;42.182;24.308;2023-03-24T00:22:53;99445.16;;;5.46;95.46
27840;BME280;15207;42.182;24.308;2023-03-24T00:25:28;99439.91;;;5.44;95.08
27840;BME280;15207;42.182;24.308;2023-03-24T00:27:55;99436.44;;;5.43;94.26
27840;BME280;15207;42.182;24.308;2023-03-24T00:30:21;99442.09;;;5.37;93.25
27840;BME280;15207;42.182;24.308;2023-03-24T00:32:49;99439.00;;;5.45;93.34
27840;BME280;15207;42.182;24.308;2023-03-24T00:35:16;99449.53;;;5.47;94.15
27840;BME280;15207;42.182;24.308;2023-03-24T00:37:42;99443.38;;;5.46;95.89
27840;BME280;15207;42.182;24.308;2023-03-24T00:40:13;99436.75;;;5.53;95.64
27840;BME280;15207;42.182;24.308;2023-03-24T00:42:41;99440.34;;;5.52;93.36
27840;BME280;15207;42.182;24.308;2023-03-24T00:45:12;99436.84;;;5.36;93.05
27840;BME280;15207;42.182;24.308;2023-03-24T00:47:38;99434.00;;;5.39;93.79
27840;BME280;15207;42.182;24.308;2023-03-24T00:50:05;99435.03;;;5.36;94.73
27840;BME280;15207;42.182;24.308;2023-03-24T00:52:31;99424.31;;;5.38;96.77
27840;BME280;15207;42.182;24.308;2023-03-24T00:55:04;99425.19;;;5.38;96.81
27840;BME280;15207;42.182;24.308;2023-03-24T00:57:31;99422.63;;;5.37;94.31
27840;BME280;15207;42.182;24.308;2023-03-24T01:00:01;99410.81;;;5.26;93.44
27840;BME280;15207;42.182;24.308;2023-03-24T01:02:35;99413.19;;;5.31;93.23
27840;BME280;15207;42.182;24.308;2023-03-24T01:05:04;99406.16;;;5.30;94.59
27840;BME280;15207;42.182;24.308;2023-03-24T01:07:33;99413.53;;;5.41;99.90
27840;BME280;15207;42.182;24.308;2023-03-24T01:09:59;99403.31;;;5.49;99.35
27840;BME280;15207;42.182;24.308;2023-03-24T01:12:35;99401.38;;;5.53;98.39
27840;BME280;15207;42.182;24.308;2023-03-24T01:15:07;99397.53;;;5.42;97.60
27840;BME280;15207;42.182;24.308;2023-03-24T01:17:34;99400.69;;;5.33;97.03
27840;BME280;15207;42.182;24.308;2023-03-24T01:20:02;99390.38;;;5.27;96.55
27840;BME280;15207;42.182;24.308;2023-03-24T01:22:37;99402.31;;;5.20;96.12
27840;BME280;15207;42.182;24.308;2023-03-24T01:25:15;99395.63;;;5.12;94.14
27840;BME280;15207;42.182;24.308;2023-03-24T01:27:46;99383.53;;;5.07;93.53
27840;BME280;15207;42.182;24.308;2023-03-24T01:30:13;99392.06;;;4.80;93.64
27840;BME280;15207;42.182;24.308;2023-03-24T01:32:39;99390.81;;;4.53;95.37
27840;BME280;15207;42.182;24.308;2023-03-24T01:35:06;99388.38;;;4.48;96.69
27840;BME280;15207;42.182;24.308;2023-03-24T01:37:32;99384.66;;;4.35;96.54
27840;BME280;15207;42.182;24.308;2023-03-24T01:39:57;99382.47;;;4.08;97.13
27840;BME280;15207;42.182;24.308;2023-03-24T01:42:25;99387.50;;;4.14;98.38
27840;BME280;15207;42.182;24.308;2023-03-24T01:44:56;99382.41;;;4.27;98.07
27840;BME280;15207;42.182;24.308;2023-03-24T01:47:22;99376.31;;;4.25;97.63
27840;BME280;15207;42.182;24.308;2023-03-24T01:49:54;99382.09;;;4.16;98.86
27840;BME280;15207;42.182;24.308;2023-03-24T01:52:34;99376.94;;;3.95;99.03
27840;BME280;15207;42.182;24.308;2023-03-24T01:55:14;99377.09;;;4.09;98.86
27840;BME280;15207;42.182;24.308;2023-03-24T01:57:54;99378.03;;;3.91;99.23
27840;BME280;15207;42.182;24.308;2023-03-24T02:00:21;99377.56;;;4.00;98.97
27840;BME280;15207;42.182;24.308;2023-03-24T02:02:51;99377.66;;;3.99;98.81
27840;BME280;15207;42.182;24.308;2023-03-24T02:05:20;99381.09;;;4.01;98.03
27840;BME280;15207;42.182;24.308;2023-03-24T02:10:35;99382.41;;;4.09;98.94
27840;BME280;15207;42.182;24.308;2023-03-24T02:13:02;99377.88;;;4.29;99.60
27840;BME280;15207;42.182;24.308;2023-03-24T02:15:30;99383.09;;;4.31;99.86
27840;BME280;15207;42.182;24.308;2023-03-24T02:18:42;99381.47;;;4.28;98.98
27840;BME280;15207;42.182;24.308;2023-03-24T02:40:43;99402.44;;;3.80;99.04
27840;BME280;15207;42.182;24.308;2023-03-24T02:48:22;99406.78;;;3.81;99.24
27840;BME280;15207;42.182;24.308;2023-03-24T02:51:16;99411.47;;;3.76;99.41
27840;BME280;15207;42.182;24.308;2023-03-24T02:57:20;99422.53;;;3.84;100.00
27840;BME280;15207;42.182;24.308;2023-03-24T03:02:29;99425.78;;;3.72;97.88
27840;BME280;15207;42.182;24.308;2023-03-24T03:05:03;99431.53;;;3.62;98.50
27840;BME280;15207;42.182;24.308;2023-03-24T03:07:31;99438.25;;;3.69;100.00
27840;BME280;15207;42.182;24.308;2023-03-24T03:10:13;99439.81;;;3.74;100.00
27840;BME280;15207;42.182;24.308;2023-03-24T03:12:40;99444.34;;;3.72;100.00
27840;BME280;15207;42.182;24.308;2023-03-24T03:15:11;99434.34;;;3.40;98.18
27840;BME280;15207;42.182;24.308;2023-03-24T03:17:42;99431.13;;;3.52;97.79
27840;BME280;15207;42.182;24.308;2023-03-24T03:20:16;99435.75;;;3.66;98.60
27840;BME280;15207;42.182;24.308;2023-03-24T03:22:54;99430.84;;;3.76;100.00
27840;BME280;15207;42.182;24.308;2023-03-24T03:25:25;99412.41;;;3.75;100.00
27840;BME280;15207;42.182;24.308;2023-03-24T03:27:57;99417.59;;;3.76;100.00
27840;BME280;15207;42.182;24.308;2023-03-24T03:30:33;99395.63;;;3.74;99.20
27840;BME280;15207;42.182;24.308;2023-03-24T03:33:08;99391.09;;;3.76;99.44
27840;BME280;15207;42.182;24.308;2023-03-24T03:39:05;99392.84;;;3.77;99.37
27840;BME280;15207;42.182;24.308;2023-03-24T03:41:36;99385.34;;;3.86;98.51
27840;BME280;15207;42.182;24.308;2023-03-24T03:44:06;99385.66;;;3.79;97.20
27840;BME280;15207;42.182;24.308;2023-03-24T03:46:31;99374.94;;;3.82;96.42
27840;BME280;15207;42.182;24.308;2023-03-24T03:48:59;99368.63;;;3.85;95.42
27840;BME280;15207;42.182;24.308;2023-03-24T03:51:25;99371.66;;;3.77;95.65
27840;BME280;15207;42.182;24.308;2023-03-24T03:53:57;99373.91;;;3.85;95.09
27840;BME280;15207;42.182;24.308;2023-03-24T03:56:27;99375.00;;;3.81;95.62
27840;BME280;15207;42.182;24.308;2023-03-24T03:58:53;99363.16;;;3.88;96.59
27840;BME280;15207;42.182;24.308;2023-03-24T04:01:20;99368.38;;;3.72;95.32
27840;BME280;15207;42.182;24.308;2023-03-24T04:20:14;99377.69;;;2.86;100.00
27840;BME280;15207;42.182;24.308;2023-03-24T04:28:21;99379.22;;;2.92;100.00
27840;BME280;15207;42.182;24.308;2023-03-24T04:30:58;99386.22;;;2.93;100.00
27840;BME280;15207;42.182;24.308;2023-03-24T04:38:48;99383.19;;;3.20;100.00
27840;BME280;15207;42.182;24.308;2023-03-24T04:41:18;99375.88;;;3.44;100.00
27840;BME280;15207;42.182;24.308;2023-03-24T04:43:45;99384.47;;;3.30;100.00
27840;BME280;15207;42.182;24.308;2023-03-24T04:46:12;99389.00;;;3.28;100.00
27840;BME280;15207;42.182;24.308;2023-03-24T04:48:45;99405.16;;;3.41;100.00
27840;BME280;15207;42.182;24.308;2023-03-24T04:51:15;99415.50;;;3.46;100.00
27840;BME280;15207;42.182;24.308;2023-03-24T04:53:41;99407.50;;;3.48;98.87
27840;BME280;15207;42.182;24.308;2023-03-24T04:58:36;99407.94;;;3.57;98.13
27840;BME280;15207;42.182;24.308;2023-03-24T05:01:02;99413.00;;;3.62;97.04
27840;BME280;15207;42.182;24.308;2023-03-24T05:03:30;99415.25;;;3.70;97.33
27840;BME280;15207;42.182;24.308;2023-03-24T05:05:56;99419.34;;;3.77;98.27
27840;BME280;15207;42.182;24.308;2023-03-24T05:08:23;99421.53;;;3.87;98.70
27840;BME280;15207;42.182;24.308;2023-03-24T05:10:48;99424.44;;;4.00;99.14
27840;BME280;15207;42.182;24.308;2023-03-24T05:13:14;99425.53;;;4.31;99.21
27840;BME280;15207;42.182;24.308;2023-03-24T05:15:40;99420.19;;;4.66;98.34
27840;BME280;15207;42.182;24.308;2023-03-24T05:18:10;99422.69;;;5.19;94.69
27840;BME280;15207;42.182;24.308;2023-03-24T05:20:35;99424.94;;;5.59;92.89
27840;BME280;15207;42.182;24.308;2023-03-24T05:23:01;99425.59;;;5.79;91.58
27840;BME280;15207;42.182;24.308;2023-03-24T05:25:27;99421.28;;;6.39;90.68
27840;BME280;15207;42.182;24.308;2023-03-24T05:27:52;99436.97;;;6.58;88.49
27840;BME280;15207;42.182;24.308;2023-03-24T05:30:18;99439.66;;;6.73;88.33
27840;BME280;15207;42.182;24.308;2023-03-24T05:32:44;99439.09;;;6.68;88.95
27840;BME280;15207;42.182;24.308;2023-03-24T05:35:13;99447.19;;;7.24;86.66
27840;BME280;15207;42.182;24.308;2023-03-24T05:37:42;99447.34;;;7.50;86.55
27840;BME280;15207;42.182;24.308;2023-03-24T05:40:07;99436.41;;;8.23;84.25
27840;BME280;15207;42.182;24.308;2023-03-24T05:42:33;99435.97;;;8.57;82.39
27840;BME280;15207;42.182;24.308;2023-03-24T05:44:59;99439.19;;;8.88;80.88
27840;BME280;15207;42.182;24.308;2023-03-24T05:47:24;99440.44;;;9.21;78.70
27840;BME280;15207;42.182;24.308;2023-03-24T05:49:51;99447.03;;;9.42;77.88
27840;BME280;15207;42.182;24.308;2023-03-24T05:52:17;99438.94;;;9.30;77.52
27840;BME280;15207;42.182;24.308;2023-03-24T05:54:45;99442.81;;;9.88;76.33
27840;BME280;15207;42.182;24.308;2023-03-24T05:57:15;99442.06;;;10.10;75.21
27840;BME280;15207;42.182;24.308;2023-03-24T05:59:41;99446.63;;;9.72;75.88
27840;BME280;15207;42.182;24.308;2023-03-24T06:02:06;99440.72;;;9.30;77.40
27840;BME280;15207;42.182;24.308;2023-03-24T06:04:31;99445.25;;;9.29;78.82
27840;BME280;15207;42.182;24.308;2023-03-24T06:06:57;99444.28;;;9.17;78.55
27840;BME280;15207;42.182;24.308;2023-03-24T06:09:28;99436.28;;;9.04;79.41
27840;BME280;15207;42.182;24.308;2023-03-24T06:11:56;99438.16;;;9.28;79.27
27840;BME280;15207;42.182;24.308;2023-03-24T06:14:24;99448.00;;;9.41;78.73
27840;BME280;15207;42.182;24.308;2023-03-24T06:16:52;99439.31;;;9.50;78.58
27840;BME280;15207;42.182;24.308;2023-03-24T06:19:17;99443.19;;;9.70;78.38
27840;BME280;15207;42.182;24.308;2023-03-24T06:21:47;99445.91;;;9.95;77.53
27840;BME280;15207;42.182;24.308;2023-03-24T06:24:15;99442.91;;;10.11;77.68
27840;BME280;15207;42.182;24.308;2023-03-24T06:26:41;99443.72;;;10.00;77.09
27840;BME280;15207;42.182;24.308;2023-03-24T06:29:08;99438.19;;;10.14;77.67
27840;BME280;15207;42.182;24.308;2023-03-24T06:31:34;99445.69;;;10.69;76.02
27840;BME280;15207;42.182;24.308;2023-03-24T06:34:04;99445.25;;;11.10;73.67
27840;BME280;15207;42.182;24.308;2023-03-24T06:36:31;99448.41;;;11.38;71.98
27840;BME280;15207;42.182;24.308;2023-03-24T06:38:59;99445.69;;;11.49;72.12
27840;BME280;15207;42.182;24.308;2023-03-24T06:41:26;99441.00;;;11.74;70.91
27840;BME280;15207;42.182;24.308;2023-03-24T06:43:52;99445.47;;;11.97;69.92
27840;BME280;15207;42.182;24.308;2023-03-24T06:46:17;99442.50;;;12.23;68.62
27840;BME280;15207;42.182;24.308;2023-03-24T06:48:43;99442.78;;;12.41;67.24
27840;BME280;15207;42.182;24.308;2023-03-24T06:51:11;99444.53;;;12.30;68.07
27840;BME280;15207;42.182;24.308;2023-03-24T06:53:36;99449.91;;;12.52;67.19
27840;BME280;15207;42.182;24.308;2023-03-24T06:56:05;99440.09;;;12.41;66.73
27840;BME280;15207;42.182;24.308;2023-03-24T06:58:33;99450.03;;;12.72;66.79
27840;BME280;15207;42.182;24.308;2023-03-24T07:01:00;99447.31;;;12.93;65.50
27840;BME280;15207;42.182;24.308;2023-03-24T07:03:26;99453.00;;;13.21;65.50
27840;BME280;15207;42.182;24.308;2023-03-24T07:05:55;99453.06;;;13.09;66.11
27840;BME280;15207;42.182;24.308;2023-03-24T07:08:21;99447.53;;;13.01;66.32
27840;BME280;15207;42.182;24.308;2023-03-24T07:10:46;99444.88;;;13.11;65.47
27840;BME280;15207;42.182;24.308;2023-03-24T07:13:15;99452.94;;;13.11;63.14
27840;BME280;15207;42.182;24.308;2023-03-24T07:15:40;99457.13;;;12.73;65.06
27840;BME280;15207;42.182;24.308;2023-03-24T07:18:06;99447.47;;;12.91;65.82
27840;BME280;15207;42.182;24.308;2023-03-24T07:20:31;99454.25;;;13.17;65.43
27840;BME280;15207;42.182;24.308;2023-03-24T07:22:57;99459.66;;;13.58;64.44
27840;BME280;15207;42.182;24.308;2023-03-24T07:25:23;99453.69;;;13.54;62.68
27840;BME280;15207;42.182;24.308;2023-03-24T07:27:52;99458.28;;;13.32;64.23
27840;BME280;15207;42.182;24.308;2023-03-24T07:30:19;99450.81;;;13.46;61.84
27840;BME280;15207;42.182;24.308;2023-03-24T07:32:45;99452.84;;;13.54;61.30
27840;BME280;15207;42.182;24.308;2023-03-24T07:35:11;99459.84;;;13.76;61.25
27840;BME280;15207;42.182;24.308;2023-03-24T07:37:38;99461.16;;;14.01;60.06
27840;BME280;15207;42.182;24.308;2023-03-24T07:40:07;99451.94;;;13.94;58.78
27840;BME280;15207;42.182;24.308;2023-03-24T07:42:38;99456.91;;;13.99;58.67
27840;BME280;15207;42.182;24.308;2023-03-24T07:45:07;99443.75;;;14.06;59.36
27840;BME280;15207;42.182;24.308;2023-03-24T07:47:33;99449.09;;;14.55;57.81
27840;BME280;15207;42.182;24.308;2023-03-24T07:49:59;99453.03;;;14.71;56.79
27840;BME280;15207;42.182;24.308;2023-03-24T07:52:27;99450.78;;;14.66;56.12
27840;BME280;15207;42.182;24.308;2023-03-24T07:54:55;99436.22;;;14.49;55.99
27840;BME280;15207;42.182;24.308;2023-03-24T07:57:21;99444.25;;;14.88;55.91
27840;BME280;15207;42.182;24.308;2023-03-24T07:59:47;99443.44;;;14.78;54.91
27840;BME280;15207;42.182;24.308;2023-03-24T08:02:17;99444.41;;;14.87;55.92
27840;BME280;15207;42.182;24.308;2023-03-24T08:04:43;99435.91;;;14.81;56.04
27840;BME280;15207;42.182;24.308;2023-03-24T08:07:10;99435.16;;;14.99;57.05
27840;BME280;15207;42.182;24.308;2023-03-24T08:09:39;99426.94;;;15.29;54.18
27840;BME280;15207;42.182;24.308;2023-03-24T08:12:11;99429.94;;;15.54;54.82
27840;BME280;15207;42.182;24.308;2023-03-24T08:14:37;99425.78;;;15.59;53.26
27840;BME280;15207;42.182;24.308;2023-03-24T08:17:03;99428.28;;;15.71;53.54
27840;BME280;15207;42.182;24.308;2023-03-24T08:19:29;99424.25;;;15.57;52.75
27840;BME280;15207;42.182;24.308;2023-03-24T08:21:55;99420.31;;;15.69;53.65
27840;BME280;15207;42.182;24.308;2023-03-24T08:24:20;99419.16;;;15.72;53.73
27840;BME280;15207;42.182;24.308;2023-03-24T08:26:46;99417.19;;;15.74;53.36
27840;BME280;15207;42.182;24.308;2023-03-24T08:29:12;99412.72;;;15.83;52.30
27840;BME280;15207;42.182;24.308;2023-03-24T08:31:38;99412.41;;;15.40;53.16
27840;BME280;15207;42.182;24.308;2023-03-24T08:34:05;99410.13;;;15.35;54.16
27840;BME280;15207;42.182;24.308;2023-03-24T08:36:36;99416.28;;;15.27;55.16
27840;BME280;15207;42.182;24.308;2023-03-24T08:39:01;99411.91;;;15.54;55.12
27840;BME280;15207;42.182;24.308;2023-03-24T08:41:31;99400.84;;;15.94;54.04
27840;BME280;15207;42.182;24.308;2023-03-24T08:43:59;99402.47;;;16.05;53.17
27840;BME280;15207;42.182;24.308;2023-03-24T08:46:26;99397.31;;;15.93;52.39
27840;BME280;15207;42.182;24.308;2023-03-24T08:48:52;99390.91;;;15.94;51.24
27840;BME280;15207;42.182;24.308;2023-03-24T08:51:17;99385.44;;;16.04;52.13
27840;BME280;15207;42.182;24.308;2023-03-24T08:53:43;99392.13;;;16.18;51.30
27840;BME280;15207;42.182;24.308;2023-03-24T08:56:08;99393.75;;;16.29;51.34
27840;BME280;15207;42.182;24.308;2023-03-24T08:58:34;99391.75;;;16.58;50.85
27840;BME280;15207;42.182;24.308;2023-03-24T09:01:01;99384.09;;;16.79;51.14
27840;BME280;15207;42.182;24.308;2023-03-24T09:03:26;99382.28;;;17.15;49.21
27840;BME280;15207;42.182;24.308;2023-03-24T09:05:55;99386.69;;;17.16;49.45
27840;BME280;15207;42.182;24.308;2023-03-24T09:08:21;99383.81;;;16.83;49.63
27840;BME280;15207;42.182;24.308;2023-03-24T09:10:47;99378.25;;;16.92;49.92
27840;BME280;15207;42.182;24.308;2023-03-24T09:13:17;99368.44;;;17.18;49.03
27840;BME280;15207;42.182;24.308;2023-03-24T09:15:47;99364.78;;;17.27;47.89
27840;BME280;15207;42.182;24.308;2023-03-24T09:18:13;99363.47;;;17.56;47.81
27840;BME280;15207;42.182;24.308;2023-03-24T09:20:40;99374.09;;;16.72;48.69
27840;BME280;15207;42.182;24.308;2023-03-24T09:23:08;99346.94;;;16.82;49.02
27840;BME280;15207;42.182;24.308;2023-03-24T09:25:34;99350.78;;;16.71;49.24
27840;BME280;15207;42.182;24.308;2023-03-24T09:28:00;99356.47;;;16.94;48.37
27840;BME280;15207;42.182;24.308;2023-03-24T09:30:26;99346.75;;;16.48;49.58
27840;BME280;15207;42.182;24.308;2023-03-24T09:32:52;99355.00;;;16.73;48.77
27840;BME280;15207;42.182;24.308;2023-03-24T09:35:18;99342.88;;;16.77;48.66
27840;BME280;15207;42.182;24.308;2023-03-24T09:37:43;99332.28;;;16.92;48.36
27840;BME280;15207;42.182;24.308;2023-03-24T09:40:14;99341.38;;;16.83;48.17
27840;BME280;15207;42.182;24.308;2023-03-24T09:42:42;99333.75;;;16.78;47.98
27840;BME280;15207;42.182;24.308;2023-03-24T09:45:20;99332.16;;;17.02;48.21
27840;BME280;15207;42.182;24.308;2023-03-24T09:47:55;99325.88;;;16.59;49.25
27840;BME280;15207;42.182;24.308;2023-03-24T09:50:35;99317.88;;;17.18;48.10
27840;BME280;15207;42.182;24.308;2023-03-24T09:55:57;99312.72;;;17.58;47.45
27840;BME280;15207;42.182;24.308;2023-03-24T09:58:28;99318.63;;;17.45;46.98
27840;BME280;15207;42.182;24.308;2023-03-24T10:00:55;99317.44;;;17.40;47.45
27840;BME280;15207;42.182;24.308;2023-03-24T10:03:22;99308.78;;;17.28;47.34
27840;BME280;15207;42.182;24.308;2023-03-24T10:08:34;99313.19;;;17.37;47.60
27840;BME280;15207;42.182;24.308;2023-03-24T10:13:59;99303.78;;;17.07;48.06
27840;BME280;15207;42.182;24.308;2023-03-24T10:16:33;99303.38;;;17.36;47.90
27840;BME280;15207;42.182;24.308;2023-03-24T10:19:10;99301.22;;;17.56;47.44
27840;BME280;15207;42.182;24.308;2023-03-24T10:21:44;99299.38;;;17.74;47.29
27840;BME280;15207;42.182;24.308;2023-03-24T10:24:24;99296.94;;;17.37;47.35
27840;BME280;15207;42.182;24.308;2023-03-24T10:26:57;99298.31;;;17.41;47.38
27840;BME280;15207;42.182;24.308;2023-03-24T10:29:31;99289.31;;;17.24;47.87
27840;BME280;15207;42.182;24.308;2023-03-24T10:31:59;99285.44;;;17.27;47.55
27840;BME280;15207;42.182;24.308;2023-03-24T10:34:29;99271.59;;;17.63;47.54
27840;BME280;15207;42.182;24.308;2023-03-24T10:37:00;99279.22;;;17.76;46.92
27840;BME280;15207;42.182;24.308;2023-03-24T10:39:30;99275.31;;;17.37;48.22
27840;BME280;15207;42.182;24.308;2023-03-24T10:41:57;99265.69;;;17.60;47.67
27840;BME280;15207;42.182;24.308;2023-03-24T10:44:24;99266.19;;;17.63;47.46
27840;BME280;15207;42.182;24.308;2023-03-24T10:46:56;99264.16;;;17.57;47.70
27840;BME280;15207;42.182;24.308;2023-03-24T10:49:24;99266.19;;;17.63;47.05
27840;BME280;15207;42.182;24.308;2023-03-24T10:51:58;99266.56;;;17.60;47.59
27840;BME280;15207;42.182;24.308;2023-03-24T10:54:27;99248.25;;;17.62;47.61
27840;BME280;15207;42.182;24.308;2023-03-24T11:05:20;99250.19;;;18.52;44.08
27840;BME280;15207;42.182;24.308;2023-03-24T11:07:48;99234.06;;;18.58;44.50
27840;BME280;15207;42.182;24.308;2023-03-24T11:10:18;99232.50;;;18.72;44.63
27840;BME280;15207;42.182;24.308;2023-03-24T11:15:21;99222.75;;;18.86;44.59
27840;BME280;15207;42.182;24.308;2023-03-24T11:17:53;99211.38;;;18.91;44.27
27840;BME280;15207;42.182;24.308;2023-03-24T11:20:25;99211.97;;;18.78;44.79
27840;BME280;15207;42.182;24.308;2023-03-24T11:23:02;99204.81;;;18.45;44.84
27840;BME280;15207;42.182;24.308;2023-03-24T11:25:31;99202.19;;;18.20;45.70
27840;BME280;15207;42.182;24.308;2023-03-24T11:28:04;99202.72;;;18.07;45.67
27840;BME280;15207;42.182;24.308;2023-03-24T11:30:42;99186.78;;;18.13;45.13
27840;BME280;15207;42.182;24.308;2023-03-24T11:33:29;99175.75;;;18.22;45.08
27840;BME280;15207;42.182;24.308;2023-03-24T11:41:38;99164.31;;;18.44;44.33
27840;BME280;15207;42.182;24.308;2023-03-24T11:46:45;99156.66;;;18.56;43.45
27840;BME280;15207;42.182;24.308;2023-03-24T11:49:17;99153.56;;;18.59;44.17
27840;BME280;15207;42.182;24.308;2023-03-24T11:51:46;99149.25;;;18.41;44.57
27840;BME280;15207;42.182;24.308;2023-03-24T11:54:16;99141.78;;;18.75;44.47
27840;BME280;15207;42.182;24.308;2023-03-24T11:57:02;99129.91;;;18.76;44.28
27840;BME280;15207;42.182;24.308;2023-03-24T11:59:39;99128.84;;;18.85;43.73
27840;BME280;15207;42.182;24.308;2023-03-24T12:04:47;99123.53;;;19.39;42.99
27840;BME280;15207;42.182;24.308;2023-03-24T12:18:38;99103.34;;;19.18;42.82
27840;BME280;15207;42.182;24.308;2023-03-24T12:26:57;99104.53;;;19.39;41.30
27840;BME280;15207;42.182;24.308;2023-03-24T12:29:53;99089.78;;;19.56;40.59
27840;BME280;15207;42.182;24.308;2023-03-24T12:32:39;99081.63;;;19.56;41.24
27840;BME280;15207;42.182;24.308;2023-03-24T12:35:23;99072.09;;;19.76;40.73
27840;BME280;15207;42.182;24.308;2023-03-24T12:38:45;99082.09;;;19.75;41.08
27840;BME280;15207;42.182;24.308;2023-03-24T12:49:20;99071.25;;;20.05;40.39
27840;BME280;15207;42.182;24.308;2023-03-24T12:54:54;99066.38;;;20.16;38.73
27840;BME280;15207;42.182;24.308;2023-03-24T12:57:35;99057.84;;;20.19;38.95
27840;BME280;15207;42.182;24.308;2023-03-24T13:00:32;99051.72;;;20.32;38.55
27840;BME280;15207;42.182;24.308;2023-03-24T13:03:19;99061.41;;;20.19;38.99
27840;BME280;15207;42.182;24.308;2023-03-24T13:05:50;99051.16;;;20.21;39.05
27840;BME280;15207;42.182;24.308;2023-03-24T13:08:23;99043.44;;;20.40;38.21
27840;BME280;15207;42.182;24.308;2023-03-24T13:10:53;99049.53;;;20.42;37.62
27840;BME280;15207;42.182;24.308;2023-03-24T13:13:30;99045.81;;;20.28;37.56
27840;BME280;15207;42.182;24.308;2023-03-24T13:16:04;99034.31;;;20.26;38.65
27840;BME280;15207;42.182;24.308;2023-03-24T13:18:49;99029.97;;;20.32;38.61
27840;BME280;15207;42.182;24.308;2023-03-24T13:21:21;99028.69;;;20.50;38.66
27840;BME280;15207;42.182;24.308;2023-03-24T13:24:02;99032.31;;;20.35;37.88
27840;BME280;15207;42.182;24.308;2023-03-24T13:32:16;99033.44;;;20.26;37.20
27840;BME280;15207;42.182;24.308;2023-03-24T13:37:26;99027.13;;;20.03;37.79
27840;BME280;15207;42.182;24.308;2023-03-24T13:40:06;99016.16;;;20.12;38.09
27840;BME280;15207;42.182;24.308;2023-03-24T13:42:36;99011.06;;;20.24;38.02
27840;BME280;15207;42.182;24.308;2023-03-24T13:45:06;99013.16;;;20.06;38.08
27840;BME280;15207;42.182;24.308;2023-03-24T13:48:03;98997.63;;;19.70;38.83
27840;BME280;15207;42.182;24.308;2023-03-24T13:50:37;99005.00;;;20.06;38.61
27840;BME280;15207;42.182;24.308;2023-03-24T13:53:04;99004.53;;;20.40;36.87
27840;BME280;15207;42.182;24.308;2023-03-24T13:55:32;99004.72;;;20.38;36.98
27840;BME280;15207;42.182;24.308;2023-03-24T13:58:00;98992.06;;;20.45;36.88
27840;BME280;15207;42.182;24.308;2023-03-24T14:00:32;98995.03;;;20.51;35.65
27840;BME280;15207;42.182;24.308;2023-03-24T14:15:44;98982.13;;;20.59;33.86
27840;BME280;15207;42.182;24.308;2023-03-24T14:21:05;98977.41;;;20.46;34.03
27840;BME280;15207;42.182;24.308;2023-03-24T14:23:41;98981.69;;;20.34;34.38
27840;BME280;15207;42.182;24.308;2023-03-24T14:26:12;98974.78;;;20.16;34.84
27840;BME280;15207;42.182;24.308;2023-03-24T14:28:46;98980.69;;;20.20;34.75
27840;BME280;15207;42.182;24.308;2023-03-24T14:34:06;98971.00;;;20.32;35.62
27840;BME280;15207;42.182;24.308;2023-03-24T14:42:00;98963.88;;;20.53;34.28
27840;BME280;15207;42.182;24.308;2023-03-24T14:47:15;98955.66;;;20.46;35.87
27840;BME280;15207;42.182;24.308;2023-03-24T14:49:43;98953.13;;;20.45;35.69
27840;BME280;15207;42.182;24.308;2023-03-24T14:52:17;98953.25;;;20.58;35.35
27840;BME280;15207;42.182;24.308;2023-03-24T14:54:45;98954.63;;;20.47;34.84
27840;BME280;15207;42.182;24.308;2023-03-24T14:57:24;98954.50;;;20.34;35.11
27840;BME280;15207;42.182;24.308;2023-03-24T15:00:02;98957.97;;;20.28;35.00
27840;BME280;15207;42.182;24.308;2023-03-24T15:05:28;98948.84;;;20.14;35.45
27840;BME280;15207;42.182;24.308;2023-03-24T15:08:15;98952.91;;;20.03;35.22
27840;BME280;15207;42.182;24.308;2023-03-24T15:15:52;98942.81;;;19.81;36.10
27840;BME280;15207;42.182;24.308;2023-03-24T15:18:18;98945.47;;;19.75;36.49
27840;BME280;15207;42.182;24.308;2023-03-24T15:20:47;98950.44;;;19.71;36.60
27840;BME280;15207;42.182;24.308;2023-03-24T15:23:24;98950.16;;;19.66;37.03
27840;BME280;15207;42.182;24.308;2023-03-24T15:25:52;98948.28;;;19.66;36.97
27840;BME280;15207;42.182;24.308;2023-03-24T15:28:21;98939.34;;;19.73;36.61
27840;BME280;15207;42.182;24.308;2023-03-24T15:30:48;98950.44;;;19.71;36.54
27840;BME280;15207;42.182;24.308;2023-03-24T15:33:15;98947.13;;;19.76;36.21
27840;BME280;15207;42.182;24.308;2023-03-24T15:35:42;98951.84;;;19.67;36.68
27840;BME280;15207;42.182;24.308;2023-03-24T15:38:17;98946.22;;;19.68;36.45
27840;BME280;15207;42.182;24.308;2023-03-24T15:40:52;98945.19;;;19.69;36.94
27840;BME280;15207;42.182;24.308;2023-03-24T15:43:20;98944.66;;;19.59;36.59
27840;BME280;15207;42.182;24.308;2023-03-24T15:45:50;98956.31;;;19.60;36.73
27840;BME280;15207;42.182;24.308;2023-03-24T15:48:19;98946.22;;;19.68;36.64
27840;BME280;15207;42.182;24.308;2023-03-24T15:51:05;98946.41;;;19.67;36.16
27840;BME280;15207;42.182;24.308;2023-03-24T15:56:04;98954.28;;;19.62;36.44
27840;BME280;15207;42.182;24.308;2023-03-24T15:58:45;98955.09;;;19.62;36.55